createdAt,value
2023-05-06T00:00:40.004Z,6.57
2023-05-06T00:03:10.050Z,7.00
2023-05-06T00:05:38.769Z,6.43
2023-05-06T00:08:07.510Z,7.10
2023-05-06T00:10:36.494Z,7.83
2023-05-06T00:13:06.629Z,8.43
2023-05-06T00:15:35.489Z,9.20
2023-05-06T00:18:04.409Z,9.97
2023-05-06T00:20:33.200Z,8.63
2023-05-06T00:23:01.960Z,8.47
2023-05-06T00:25:30.709Z,8.40
2023-05-06T00:27:59.418Z,8.47
2023-05-06T00:30:29.700Z,9.20
2023-05-06T00:32:58.422Z,9.37
2023-05-06T00:35:27.208Z,8.77
2023-05-06T00:38:00.038Z,9.47
2023-05-06T00:40:28.755Z,8.20
2023-05-06T00:42:57.484Z,9.17
2023-05-06T00:45:28.716Z,8.90
2023-05-06T00:47:59.335Z,9.23
2023-05-06T00:50:29.868Z,8.47
2023-05-06T00:53:01.433Z,7.90
2023-05-06T00:55:31.521Z,9.73
2023-05-06T00:58:01.012Z,14.20
2023-05-06T01:00:31.510Z,9.40
2023-05-06T01:03:00.352Z,8.40
2023-05-06T01:05:41.488Z,9.60
2023-05-06T01:08:21.365Z,8.27
2023-05-06T01:10:58.772Z,8.87
2023-05-06T01:13:40.155Z,8.40
2023-05-06T01:16:13.924Z,8.83
2023-05-06T01:18:45.911Z,8.90
2023-05-06T01:21:17.788Z,8.57
2023-05-06T01:23:57.701Z,8.77
2023-05-06T01:26:27.343Z,9.47
2023-05-06T01:28:57.620Z,9.80
2023-05-06T01:31:31.383Z,12.33
2023-05-06T01:34:15.572Z,11.60
2023-05-06T01:36:57.731Z,15.00
2023-05-06T01:39:32.287Z,17.07
2023-05-06T01:42:03.902Z,11.63
2023-05-06T01:44:38.287Z,10.23
2023-05-06T01:47:08.808Z,10.10
2023-05-06T01:49:38.210Z,11.00
2023-05-06T01:52:07.363Z,10.97
2023-05-06T01:54:37.547Z,11.73
2023-05-06T01:57:06.224Z,12.83
2023-05-06T01:59:34.957Z,11.40
2023-05-06T02:02:03.828Z,10.63
2023-05-06T02:04:33.154Z,11.13
2023-05-06T02:07:02.140Z,10.73
2023-05-06T02:09:30.895Z,11.87
2023-05-06T02:12:04.894Z,12.23
2023-05-06T02:14:33.679Z,12.30
2023-05-06T02:17:05.851Z,13.73
2023-05-06T02:19:35.836Z,12.20
2023-05-06T02:22:04.916Z,12.57
2023-05-06T02:24:33.608Z,11.50
2023-05-06T02:27:04.306Z,17.47
2023-05-06T02:29:32.940Z,16.33
2023-05-06T02:32:01.932Z,15.20
2023-05-06T02:34:31.017Z,22.20
2023-05-06T02:37:00.084Z,14.63
2023-05-06T02:39:28.732Z,14.93
2023-05-06T02:41:57.403Z,12.27
2023-05-06T02:44:27.526Z,11.80
2023-05-06T02:46:56.198Z,13.33
2023-05-06T02:49:24.851Z,12.77
2023-05-06T02:51:54.285Z,12.53
2023-05-06T02:54:22.931Z,11.47
2023-05-06T02:56:51.704Z,11.63
2023-05-06T02:59:21.145Z,11.37
2023-05-06T03:01:51.236Z,11.97
2023-05-06T03:04:19.951Z,12.00
2023-05-06T03:06:48.888Z,11.77
2023-05-06T03:09:17.609Z,14.10
2023-05-06T03:11:46.529Z,12.40
2023-05-06T03:14:15.817Z,12.67
2023-05-06T03:16:44.629Z,12.07
2023-05-06T03:19:14.977Z,11.83
2023-05-06T03:21:46.170Z,14.67
2023-05-06T03:24:15.180Z,13.30
2023-05-06T03:26:44.174Z,12.57
2023-05-06T03:29:16.171Z,12.53
2023-05-06T03:31:50.043Z,12.53
2023-05-06T03:34:21.072Z,12.93
2023-05-06T03:36:50.318Z,11.97
2023-05-06T03:39:20.578Z,11.00
2023-05-06T03:41:49.379Z,11.80
2023-05-06T03:44:19.775Z,11.67
2023-05-06T03:46:48.914Z,12.10
2023-05-06T03:49:17.870Z,12.07
2023-05-06T03:51:50.403Z,12.10
2023-05-06T03:54:20.365Z,10.93
2023-05-06T03:56:49.210Z,12.40
2023-05-06T03:59:18.369Z,11.87
2023-05-06T04:01:47.576Z,11.33
2023-05-06T04:04:17.342Z,12.27
2023-05-06T04:06:46.664Z,10.93
2023-05-06T04:09:16.941Z,11.03
2023-05-06T04:11:58.124Z,11.73
2023-05-06T04:14:29.818Z,11.27
2023-05-06T04:16:58.793Z,11.17
2023-05-06T04:19:28.180Z,11.53
2023-05-06T04:21:58.515Z,10.97
2023-05-06T04:24:29.556Z,10.73
2023-05-06T04:26:59.111Z,11.27
2023-05-06T04:29:41.117Z,11.07
2023-05-06T04:32:16.446Z,11.73
2023-05-06T04:34:47.425Z,10.80
2023-05-06T04:37:22.121Z,11.67
2023-05-06T04:39:57.372Z,11.83
2023-05-06T04:42:26.167Z,12.93
2023-05-06T04:45:07.763Z,12.67
2023-05-06T04:47:38.319Z,11.13
2023-05-06T04:50:09.671Z,11.20
2023-05-06T04:52:39.177Z,11.73
2023-05-06T04:55:11.705Z,11.30
2023-05-06T04:57:46.907Z,12.37
2023-05-06T05:00:16.698Z,15.00
2023-05-06T05:02:47.041Z,16.03
2023-05-06T05:05:18.231Z,15.40
2023-05-06T05:07:50.634Z,15.90
2023-05-06T05:10:21.493Z,17.20
2023-05-06T05:12:52.219Z,16.93
2023-05-06T05:15:21.635Z,16.67
2023-05-06T05:17:52.343Z,16.93
2023-05-06T05:20:24.735Z,17.47
2023-05-06T05:22:53.553Z,16.80
2023-05-06T05:25:23.861Z,17.63
2023-05-06T05:27:52.749Z,16.53
2023-05-06T05:30:21.589Z,16.47
2023-05-06T05:32:51.274Z,15.67
2023-05-06T05:35:20.270Z,14.47
2023-05-06T05:37:49.870Z,15.30
2023-05-06T05:40:19.644Z,14.40
2023-05-06T05:42:53.525Z,14.60
2023-05-06T05:45:29.328Z,14.40
2023-05-06T05:47:58.710Z,13.63
2023-05-06T05:50:28.283Z,14.93
2023-05-06T05:52:59.296Z,15.73
2023-05-06T05:55:30.869Z,16.20
2023-05-06T05:58:02.779Z,13.33
2023-05-06T06:00:33.400Z,14.30
2023-05-06T06:03:09.624Z,14.37
2023-05-06T06:05:38.757Z,14.33
2023-05-06T06:08:08.748Z,14.90
2023-05-06T06:10:37.840Z,14.43
2023-05-06T06:13:15.403Z,14.70
2023-05-06T06:15:45.623Z,13.23
2023-05-06T06:18:15.480Z,14.17
2023-05-06T06:20:46.297Z,13.50
2023-05-06T06:23:16.094Z,14.10
2023-05-06T06:25:44.898Z,14.37
2023-05-06T06:28:15.130Z,15.13
2023-05-06T06:30:44.468Z,16.97
2023-05-06T06:33:13.494Z,17.20
2023-05-06T06:35:43.011Z,16.90
2023-05-06T06:38:11.785Z,16.40
2023-05-06T06:40:40.814Z,16.40
2023-05-06T06:43:09.755Z,16.90
2023-05-06T06:45:52.254Z,15.00
2023-05-06T06:48:21.568Z,15.53
2023-05-06T06:50:50.390Z,14.97
2023-05-06T06:53:19.185Z,15.00
2023-05-06T06:55:48.419Z,15.17
2023-05-06T06:58:17.389Z,15.23
2023-05-06T07:00:46.159Z,14.67
2023-05-06T07:03:19.793Z,15.13
2023-05-06T07:05:48.612Z,15.13
2023-05-06T07:08:18.225Z,14.60
2023-05-06T07:10:47.087Z,14.93
2023-05-06T07:13:34.288Z,14.47
2023-05-06T07:16:02.991Z,14.30
2023-05-06T07:18:33.340Z,14.60
2023-05-06T07:21:02.651Z,15.57
2023-05-06T07:23:32.163Z,15.17
2023-05-06T07:26:00.998Z,15.60
2023-05-06T07:28:29.749Z,16.57
2023-05-06T07:30:58.507Z,16.00
2023-05-06T07:33:27.344Z,16.37
2023-05-06T07:35:57.490Z,17.03
2023-05-06T07:38:26.328Z,16.97
2023-05-06T07:40:55.020Z,17.07
2023-05-06T07:43:24.031Z,18.33
2023-05-06T07:46:02.859Z,18.27
2023-05-06T07:48:32.773Z,19.07
2023-05-06T07:51:04.271Z,19.17
2023-05-06T07:53:33.211Z,19.30
2023-05-06T07:56:03.977Z,19.10
2023-05-06T07:58:33.391Z,18.53
2023-05-06T08:01:03.490Z,19.70
2023-05-06T08:03:33.417Z,20.57
2023-05-06T08:06:03.645Z,19.73
2023-05-06T08:08:32.569Z,20.60
2023-05-06T08:11:01.358Z,20.00
2023-05-06T08:13:35.449Z,19.23
2023-05-06T08:16:04.555Z,18.73
2023-05-06T08:18:33.427Z,19.43
2023-05-06T08:21:11.120Z,19.53
2023-05-06T08:23:39.850Z,19.50
2023-05-06T08:26:08.623Z,18.83
2023-05-06T08:28:37.446Z,19.40
2023-05-06T08:31:06.410Z,19.37
2023-05-06T08:33:36.196Z,18.27
2023-05-06T08:36:06.790Z,19.73
2023-05-06T08:38:35.694Z,19.57
2023-05-06T08:41:10.801Z,19.83
2023-05-06T08:43:44.392Z,19.97
2023-05-06T08:46:13.294Z,19.37
2023-05-06T08:48:42.968Z,20.23
2023-05-06T08:51:15.988Z,19.43
2023-05-06T08:53:51.638Z,18.73
2023-05-06T08:56:23.337Z,19.73
2023-05-06T08:58:54.002Z,20.97
2023-05-06T09:01:22.937Z,20.07
2023-05-06T09:03:53.002Z,20.00
2023-05-06T09:06:24.178Z,20.90
2023-05-06T09:08:52.861Z,21.17
2023-05-06T09:11:24.881Z,21.20
2023-05-06T09:14:11.452Z,19.07
2023-05-06T09:16:43.671Z,18.80
2023-05-06T09:19:12.910Z,17.70
2023-05-06T09:21:46.776Z,22.37
2023-05-06T09:24:17.502Z,17.23
2023-05-06T09:26:48.377Z,17.27
2023-05-06T09:29:17.375Z,17.03
2023-05-06T09:31:48.177Z,18.90
2023-05-06T09:34:18.165Z,18.03
2023-05-06T09:36:48.537Z,17.80
2023-05-06T09:39:17.415Z,17.87
2023-05-06T09:41:46.905Z,17.43
2023-05-06T09:44:16.621Z,16.43
2023-05-06T09:46:52.108Z,16.73
2023-05-06T09:49:21.973Z,16.70
2023-05-06T09:51:53.924Z,15.13
2023-05-06T09:54:24.256Z,15.57
2023-05-06T09:56:56.577Z,16.67
2023-05-06T09:59:29.468Z,15.77
2023-05-06T10:02:00.353Z,16.27
2023-05-06T10:04:32.324Z,15.87
2023-05-06T10:07:04.917Z,16.60
2023-05-06T10:09:34.842Z,15.93
2023-05-06T10:12:04.371Z,17.90
2023-05-06T10:14:33.557Z,17.03
2023-05-06T10:17:03.522Z,17.07
2023-05-06T10:19:34.504Z,16.90
2023-05-06T10:22:12.375Z,17.13
2023-05-06T10:24:55.310Z,17.27
2023-05-06T10:27:26.305Z,16.97
2023-05-06T10:30:00.662Z,17.20
2023-05-06T10:32:43.240Z,15.93
2023-05-06T10:35:33.169Z,15.10
2023-05-06T10:38:06.797Z,15.60
2023-05-06T10:40:35.883Z,16.37
2023-05-06T10:43:26.996Z,17.50
2023-05-06T10:46:17.873Z,16.70
2023-05-06T10:49:19.404Z,15.83
2023-05-06T10:52:14.420Z,15.37
2023-05-06T10:54:52.742Z,14.90
2023-05-06T10:57:26.621Z,14.80
2023-05-06T10:59:56.640Z,14.70
2023-05-06T11:02:27.448Z,14.80
2023-05-06T11:05:03.589Z,14.70
2023-05-06T11:07:33.211Z,14.67
2023-05-06T11:10:06.926Z,14.33
2023-05-06T11:12:50.715Z,14.87
2023-05-06T11:15:25.662Z,13.67
2023-05-06T11:17:56.010Z,15.07
2023-05-06T11:20:27.867Z,14.83
2023-05-06T11:22:56.745Z,13.33
2023-05-06T11:25:47.250Z,13.20
2023-05-06T11:28:17.452Z,13.43
2023-05-06T11:30:56.633Z,13.47
2023-05-06T11:33:31.256Z,13.43
2023-05-06T11:36:02.818Z,12.90
2023-05-06T11:38:49.624Z,11.70
2023-05-06T11:41:21.231Z,11.70
2023-05-06T11:43:51.172Z,11.90
2023-05-06T11:46:21.962Z,12.43
2023-05-06T11:48:51.676Z,11.13
2023-05-06T11:51:24.283Z,10.50
2023-05-06T11:53:53.545Z,11.67
2023-05-06T11:56:24.152Z,10.30
2023-05-06T11:58:54.152Z,10.93
2023-05-06T12:01:24.699Z,10.00
2023-05-06T12:03:57.271Z,9.70
2023-05-06T12:06:36.333Z,10.23
2023-05-06T12:09:07.979Z,10.68
2023-05-06T12:11:41.629Z,10.20
2023-05-06T12:14:13.475Z,10.63
2023-05-06T12:16:44.215Z,10.37
2023-05-06T12:19:13.074Z,9.52
2023-05-06T12:21:42.058Z,9.97
2023-05-06T12:24:12.465Z,10.20
2023-05-06T12:26:48.754Z,9.43
2023-05-06T12:29:19.581Z,7.20
2023-05-06T12:31:49.796Z,7.67
2023-05-06T12:34:19.378Z,7.00
2023-05-06T12:36:49.971Z,6.80
2023-05-06T12:39:20.419Z,6.97
2023-05-06T12:41:51.023Z,7.47
2023-05-06T12:44:37.710Z,7.30
2023-05-06T12:47:08.726Z,7.85
2023-05-06T12:49:52.722Z,7.32
2023-05-06T12:52:23.879Z,9.37
2023-05-06T12:54:54.895Z,9.30
2023-05-06T12:57:26.265Z,10.47
2023-05-06T12:59:56.544Z,9.70
2023-05-06T13:02:25.618Z,9.33
2023-05-06T13:04:54.457Z,12.43
2023-05-06T13:07:23.349Z,10.23
2023-05-06T13:09:53.516Z,8.40
2023-05-06T13:12:22.390Z,8.63
2023-05-06T13:14:53.933Z,9.43
2023-05-06T13:17:23.111Z,9.13
2023-05-06T13:19:52.148Z,8.35
2023-05-06T13:22:21.100Z,6.43
2023-05-06T13:24:49.842Z,6.80
2023-05-06T13:27:18.812Z,6.35
2023-05-06T13:29:47.496Z,4.93
2023-05-06T13:32:17.730Z,6.13
2023-05-06T13:34:46.771Z,6.15
2023-05-06T13:37:15.455Z,5.50
2023-05-06T13:39:44.126Z,6.45
2023-05-06T13:42:14.077Z,8.90
2023-05-06T13:44:43.526Z,9.57
2023-05-06T13:47:22.854Z,9.30
2023-05-06T13:49:51.845Z,9.27
2023-05-06T13:52:20.674Z,9.48
2023-05-06T13:54:49.620Z,10.18
2023-05-06T13:57:19.016Z,9.85
2023-05-06T13:59:49.149Z,9.25
2023-05-06T14:02:18.163Z,9.90
2023-05-06T14:04:48.340Z,8.80
2023-05-06T14:07:17.007Z,9.32
2023-05-06T14:09:45.710Z,9.20
2023-05-06T14:12:14.358Z,10.80
2023-05-06T14:14:43.146Z,12.27
2023-05-06T14:17:11.972Z,12.48
2023-05-06T14:19:40.687Z,13.50
2023-05-06T14:22:10.892Z,13.63
2023-05-06T14:24:39.672Z,13.65
2023-05-06T14:27:08.416Z,13.07
2023-05-06T14:29:37.206Z,14.75
2023-05-06T14:32:06.465Z,13.77
2023-05-06T14:34:36.701Z,14.85
2023-05-06T14:37:05.902Z,15.02
2023-05-06T14:39:36.214Z,14.85
2023-05-06T14:42:05.141Z,15.25
2023-05-06T14:44:33.772Z,14.57
2023-05-06T14:47:02.576Z,14.27
2023-05-06T14:49:31.347Z,15.05
2023-05-06T14:52:00.029Z,13.95
2023-05-06T14:54:29.519Z,15.60
2023-05-06T14:57:02.917Z,15.32
2023-05-06T14:59:31.843Z,14.77
2023-05-06T15:02:00.847Z,14.68
2023-05-06T15:04:29.589Z,15.38
2023-05-06T15:06:58.385Z,15.00
2023-05-06T15:09:27.476Z,16.13
2023-05-06T15:11:56.280Z,14.95
2023-05-06T15:14:26.750Z,15.73
2023-05-06T15:16:58.585Z,15.88
2023-05-06T15:19:27.433Z,15.73
2023-05-06T15:21:56.402Z,16.42
2023-05-06T15:24:25.191Z,16.60
2023-05-06T15:26:54.494Z,16.65
2023-05-06T15:29:23.219Z,16.48
2023-05-06T15:31:53.359Z,16.27
2023-05-06T15:34:31.685Z,15.90
2023-05-06T15:37:01.682Z,16.40
2023-05-06T15:39:30.389Z,16.38
2023-05-06T15:42:01.300Z,16.67
2023-05-06T15:44:31.973Z,17.07
2023-05-06T15:47:02.274Z,16.77
2023-05-06T15:52:04.371Z,17.50
2023-05-06T15:54:34.793Z,16.97
2023-05-06T15:57:07.478Z,17.27
2023-05-06T15:59:48.407Z,17.10
2023-05-06T16:04:56.118Z,17.15
2023-05-06T16:07:26.617Z,16.80
2023-05-06T16:09:55.409Z,17.20
2023-05-06T16:12:24.385Z,17.13
2023-05-06T16:14:53.387Z,17.33
2023-05-06T16:17:23.603Z,17.80
2023-05-06T16:19:52.528Z,15.40
2023-05-06T16:22:21.271Z,15.47
2023-05-06T16:24:49.927Z,16.17
2023-05-06T16:27:18.603Z,15.90
2023-05-06T16:29:47.321Z,16.40
2023-05-06T16:32:16.020Z,14.90
2023-05-06T16:34:46.088Z,15.40
2023-05-06T16:37:16.309Z,14.77
2023-05-06T16:39:44.912Z,15.37
2023-05-06T16:42:13.748Z,15.70
2023-05-06T16:44:42.731Z,15.03
2023-05-06T16:47:11.709Z,15.00
2023-05-06T16:49:40.619Z,14.37
2023-05-06T16:52:10.711Z,14.77
2023-05-06T16:54:39.757Z,14.13
2023-05-06T16:57:08.701Z,14.43
2023-05-06T16:59:37.646Z,14.93
2023-05-06T17:02:06.410Z,13.47
2023-05-06T17:44:29.181Z,13.53
2023-05-06T17:46:58.226Z,14.87
2023-05-06T17:49:27.058Z,14.43
2023-05-06T17:51:56.117Z,14.53
2023-05-06T17:54:28.093Z,15.13
2023-05-06T17:56:56.823Z,15.17
2023-05-06T17:59:26.254Z,14.67
2023-05-06T18:02:00.384Z,14.47
2023-05-06T18:04:29.039Z,15.33
2023-05-06T18:06:57.777Z,15.13
2023-05-06T18:09:26.432Z,15.97
2023-05-06T18:15:09.773Z,16.20
2023-05-06T18:17:40.675Z,16.10
2023-05-06T18:20:14.318Z,16.00
2023-05-06T18:22:43.945Z,17.40
2023-05-06T18:25:22.173Z,16.77
2023-05-06T18:27:50.943Z,17.00
2023-05-06T18:30:19.638Z,15.33
2023-05-06T18:32:51.780Z,15.43
2023-05-06T18:35:21.665Z,15.83
2023-05-06T18:37:50.376Z,17.03
2023-05-06T18:40:19.580Z,16.53
2023-05-06T18:42:53.292Z,17.17
2023-05-06T18:45:34.421Z,15.33
2023-05-06T18:48:05.205Z,16.60
2023-05-06T18:51:10.494Z,17.23
2023-05-06T18:53:41.434Z,17.57
2023-05-06T18:57:01.575Z,16.97
2023-05-06T19:04:27.010Z,16.67
2023-05-06T19:06:59.033Z,16.47
2023-05-06T19:09:28.305Z,16.77
2023-05-06T19:12:00.083Z,16.47
2023-05-06T19:14:28.909Z,16.00
2023-05-06T19:17:00.078Z,16.53
2023-05-06T19:19:35.143Z,15.17
2023-05-06T19:22:04.417Z,13.67
2023-05-06T19:24:37.629Z,15.43
2023-05-06T19:27:13.221Z,14.40
2023-05-06T19:29:43.068Z,14.60
2023-05-06T19:32:47.888Z,13.83
2023-05-06T19:38:48.843Z,13.10
2023-05-06T19:41:18.215Z,12.80
2023-05-06T19:43:49.364Z,13.10
2023-05-06T19:46:18.359Z,13.07
2023-05-06T19:48:50.021Z,14.37
2023-05-06T19:51:23.115Z,14.47
2023-05-06T19:53:51.973Z,13.00
2023-05-06T19:56:20.955Z,13.63
2023-05-06T19:59:05.130Z,13.33
2023-05-06T20:01:34.253Z,12.80
2023-05-06T20:04:06.212Z,12.50
2023-05-06T20:06:38.688Z,12.93
2023-05-06T20:09:07.444Z,11.60
2023-05-06T20:11:36.085Z,12.20
2023-05-06T20:14:05.857Z,12.37
2023-05-06T20:16:39.122Z,12.57
2023-05-06T20:19:08.219Z,11.90
2023-05-06T20:21:40.041Z,12.90
2023-05-06T20:24:09.256Z,12.97
2023-05-06T20:26:39.044Z,13.30
2023-05-06T20:29:07.914Z,13.37
2023-05-06T20:31:36.623Z,12.77
2023-05-06T20:34:06.338Z,13.30
2023-05-06T20:36:35.435Z,13.67
2023-05-06T20:39:05.636Z,13.63
2023-05-06T20:41:34.604Z,12.60
2023-05-06T20:44:03.310Z,13.10
2023-05-06T20:46:34.558Z,13.80
2023-05-06T20:49:03.369Z,12.43
2023-05-06T20:51:32.336Z,13.37
2023-05-06T20:54:01.326Z,12.80
2023-05-06T20:56:31.657Z,12.90
2023-05-06T20:59:00.520Z,12.20
2023-05-06T21:01:30.055Z,11.53
2023-05-06T21:06:32.204Z,11.80
2023-05-06T21:09:00.923Z,12.10
2023-05-06T21:11:31.191Z,10.13
2023-05-06T21:14:01.019Z,11.43
2023-05-06T21:16:29.751Z,10.80
2023-05-06T21:18:58.529Z,10.53
2023-05-06T21:21:32.570Z,9.93
2023-05-06T21:24:01.713Z,10.77
2023-05-06T21:26:32.328Z,10.97
2023-05-06T21:29:00.978Z,10.43
2023-05-06T21:31:30.414Z,10.10
2023-05-06T21:34:00.503Z,9.93
2023-05-06T21:36:42.337Z,9.63
2023-05-06T21:39:17.197Z,9.17
2023-05-06T21:41:47.269Z,7.80
2023-05-06T21:44:16.151Z,7.77
2023-05-06T21:46:44.919Z,7.77
2023-05-06T21:49:13.622Z,7.17
2023-05-06T21:51:42.364Z,6.70
2023-05-06T21:54:11.048Z,7.07
2023-05-06T21:56:43.003Z,7.57
2023-05-06T21:59:13.361Z,7.23
2023-05-06T22:01:43.178Z,7.30
2023-05-06T22:04:13.369Z,7.60
2023-05-06T22:06:42.357Z,8.03
2023-05-06T22:09:12.152Z,7.53
2023-05-06T22:11:40.994Z,7.63
2023-05-06T22:14:12.093Z,8.63
2023-05-06T22:16:41.582Z,8.83
2023-05-06T22:19:10.496Z,7.83
2023-05-06T22:21:40.127Z,7.90
2023-05-06T22:24:09.312Z,8.33
2023-05-06T22:26:38.088Z,8.43
2023-05-06T22:29:06.864Z,8.47
2023-05-06T22:31:37.347Z,7.83
2023-05-06T22:34:06.085Z,8.40
2023-05-06T22:36:34.821Z,9.03
2023-05-06T22:39:04.084Z,7.60
2023-05-06T22:41:32.771Z,8.70
2023-05-06T22:44:04.563Z,8.73
2023-05-06T22:46:33.221Z,8.53
2023-05-06T22:49:03.541Z,8.67
2023-05-06T22:51:33.290Z,9.63
2023-05-06T22:54:02.251Z,9.60
2023-05-06T22:56:30.958Z,9.50
2023-05-06T22:58:59.672Z,9.73
2023-05-06T23:01:32.117Z,10.80
2023-05-06T23:04:03.642Z,11.03
2023-05-06T23:06:32.395Z,11.43
2023-05-06T23:09:01.152Z,11.07
2023-05-06T23:11:30.899Z,11.70
2023-05-06T23:13:59.546Z,11.50
2023-05-06T23:16:29.558Z,11.90
2023-05-06T23:18:58.501Z,11.63
2023-05-06T23:21:28.557Z,11.80
2023-05-06T23:23:57.395Z,12.13
2023-05-06T23:26:26.718Z,11.63
2023-05-06T23:28:55.818Z,11.37
2023-05-06T23:31:24.565Z,12.20
2023-05-06T23:33:53.331Z,11.90
2023-05-06T23:36:22.047Z,11.57
2023-05-06T23:38:53.149Z,11.77
2023-05-06T23:41:22.026Z,11.13
2023-05-06T23:43:50.653Z,11.37
2023-05-06T23:46:19.429Z,11.80
2023-05-06T23:48:48.317Z,11.00
2023-05-06T23:51:17.045Z,10.20
2023-05-06T23:53:45.926Z,10.73
2023-05-06T23:58:57.644Z,10.70
